sensor_id;sensor_type;location;lat;lon;timestamp;P1;durP1;ratioP1;P2;durP2;ratioP2
37221;SDS011;23119;51.842;-2.230;2022-08-03T00:00:21;7.13;;;1.80;;
37221;SDS011;23119;51.842;-2.230;2022-08-03T00:02:52;13.02;;;1.67;;
37221;SDS011;23119;51.842;-2.230;2022-08-03T00:05:21;6.88;;;1.40;;
37221;SDS011;23119;51.842;-2.230;2022-08-03T00:07:51;6.70;;;1.25;;
37221;SDS011;23119;51.842;-2.230;2022-08-03T00:10:19;9.35;;;2.67;;
37221;SDS011;23119;51.842;-2.230;2022-08-03T00:12:45;5.65;;;1.10;;
37221;SDS011;23119;51.842;-2.230;2022-08-03T00:15:13;9.57;;;1.42;;
37221;SDS011;23119;51.842;-2.230;2022-08-03T00:17:47;3.58;;;1.08;;
37221;SDS011;23119;51.842;-2.230;2022-08-03T00:20:12;9.20;;;1.42;;
37221;SDS011;23119;51.842;-2.230;2022-08-03T00:22:40;5.72;;;1.08;;
37221;SDS011;23119;51.842;-2.230;2022-08-03T00:25:23;4.55;;;0.82;;
37221;SDS011;23119;51.842;-2.230;2022-08-03T00:28:03;4.18;;;0.85;;
37221;SDS011;23119;51.842;-2.230;2022-08-03T00:30:37;7.40;;;1.00;;
37221;SDS011;23119;51.842;-2.230;2022-08-03T00:33:05;8.60;;;1.25;;
37221;SDS011;23119;51.842;-2.230;2022-08-03T00:35:34;8.55;;;1.02;;
37221;SDS011;23119;51.842;-2.230;2022-08-03T00:38:00;5.28;;;0.90;;
37221;SDS011;23119;51.842;-2.230;2022-08-03T00:40:31;8.63;;;1.25;;
37221;SDS011;23119;51.842;-2.230;2022-08-03T00:43:09;7.93;;;1.27;;
37221;SDS011;23119;51.842;-2.230;2022-08-03T00:45:36;7.13;;;1.40;;
37221;SDS011;23119;51.842;-2.230;2022-08-03T00:48:04;11.55;;;1.30;;
37221;SDS011;23119;51.842;-2.230;2022-08-03T00:50:35;7.72;;;1.10;;
37221;SDS011;23119;51.842;-2.230;2022-08-03T00:53:06;7.18;;;1.10;;
37221;SDS011;23119;51.842;-2.230;2022-08-03T00:55:39;6.18;;;0.93;;
37221;SDS011;23119;51.842;-2.230;2022-08-03T01:00:52;6.55;;;1.48;;
37221;SDS011;23119;51.842;-2.230;2022-08-03T01:03:23;4.85;;;1.00;;
37221;SDS011;23119;51.842;-2.230;2022-08-03T01:05:55;8.70;;;2.08;;
37221;SDS011;23119;51.842;-2.230;2022-08-03T01:08:38;4.85;;;0.80;;
37221;SDS011;23119;51.842;-2.230;2022-08-03T01:14:27;5.47;;;0.80;;
37221;SDS011;23119;51.842;-2.230;2022-08-03T01:25:30;4.35;;;0.90;;
37221;SDS011;23119;51.842;-2.230;2022-08-03T01:30:50;3.72;;;0.80;;
37221;SDS011;23119;51.842;-2.230;2022-08-03T01:33:28;5.38;;;0.82;;
37221;SDS011;23119;51.842;-2.230;2022-08-03T01:36:09;5.30;;;0.73;;
37221;SDS011;23119;51.842;-2.230;2022-08-03T01:38:50;4.60;;;1.40;;
37221;SDS011;23119;51.842;-2.230;2022-08-03T01:41:21;5.78;;;0.80;;
37221;SDS011;23119;51.842;-2.230;2022-08-03T01:43:56;2.72;;;0.60;;
37221;SDS011;23119;51.842;-2.230;2022-08-03T01:46:30;5.00;;;0.70;;
37221;SDS011;23119;51.842;-2.230;2022-08-03T01:48:59;4.00;;;1.00;;
37221;SDS011;23119;51.842;-2.230;2022-08-03T01:51:26;8.68;;;0.90;;
37221;SDS011;23119;51.842;-2.230;2022-08-03T01:53:57;4.13;;;1.20;;
37221;SDS011;23119;51.842;-2.230;2022-08-03T01:56:26;6.25;;;1.00;;
37221;SDS011;23119;51.842;-2.230;2022-08-03T01:58:56;2.95;;;0.90;;
37221;SDS011;23119;51.842;-2.230;2022-08-03T02:01:29;3.67;;;0.77;;
37221;SDS011;23119;51.842;-2.230;2022-08-03T02:03:59;2.38;;;0.50;;
37221;SDS011;23119;51.842;-2.230;2022-08-03T02:06:28;8.85;;;0.70;;
37221;SDS011;23119;51.842;-2.230;2022-08-03T02:08:58;3.80;;;0.50;;
37221;SDS011;23119;51.842;-2.230;2022-08-03T02:11:27;4.45;;;0.75;;
37221;SDS011;23119;51.842;-2.230;2022-08-03T02:13:57;4.80;;;0.73;;
37221;SDS011;23119;51.842;-2.230;2022-08-03T02:16:34;2.65;;;0.75;;
37221;SDS011;23119;51.842;-2.230;2022-08-03T02:19:06;3.70;;;0.50;;
37221;SDS011;23119;51.842;-2.230;2022-08-03T02:21:34;5.30;;;0.73;;
37221;SDS011;23119;51.842;-2.230;2022-08-03T02:24:03;2.50;;;0.50;;
37221;SDS011;23119;51.842;-2.230;2022-08-03T02:26:35;5.63;;;0.70;;
37221;SDS011;23119;51.842;-2.230;2022-08-03T02:29:10;2.72;;;0.80;;
37221;SDS011;23119;51.842;-2.230;2022-08-03T02:31:46;5.68;;;0.70;;
37221;SDS011;23119;51.842;-2.230;2022-08-03T02:34:16;3.67;;;1.23;;
37221;SDS011;23119;51.842;-2.230;2022-08-03T02:36:53;4.60;;;0.50;;
37221;SDS011;23119;51.842;-2.230;2022-08-03T02:39:24;5.22;;;0.50;;
37221;SDS011;23119;51.842;-2.230;2022-08-03T02:41:57;1.95;;;0.50;;
37221;SDS011;23119;51.842;-2.230;2022-08-03T02:44:27;3.83;;;0.50;;
37221;SDS011;23119;51.842;-2.230;2022-08-03T02:47:04;7.30;;;0.50;;
37221;SDS011;23119;51.842;-2.230;2022-08-03T02:49:32;3.88;;;0.45;;
37221;SDS011;23119;51.842;-2.230;2022-08-03T02:51:59;2.13;;;0.50;;
37221;SDS011;23119;51.842;-2.230;2022-08-03T02:54:29;6.32;;;0.60;;
37221;SDS011;23119;51.842;-2.230;2022-08-03T02:56:59;6.22;;;0.40;;
37221;SDS011;23119;51.842;-2.230;2022-08-03T02:59:40;2.22;;;0.50;;
37221;SDS011;23119;51.842;-2.230;2022-08-03T03:02:08;4.15;;;1.15;;
37221;SDS011;23119;51.842;-2.230;2022-08-03T03:04:37;6.70;;;0.50;;
37221;SDS011;23119;51.842;-2.230;2022-08-03T03:07:06;6.13;;;0.60;;
37221;SDS011;23119;51.842;-2.230;2022-08-03T03:09:35;3.08;;;0.70;;
37221;SDS011;23119;51.842;-2.230;2022-08-03T03:12:03;3.30;;;0.50;;
37221;SDS011;23119;51.842;-2.230;2022-08-03T03:14:36;3.13;;;0.50;;
37221;SDS011;23119;51.842;-2.230;2022-08-03T03:17:10;5.28;;;1.20;;
37221;SDS011;23119;51.842;-2.230;2022-08-03T03:19:39;2.72;;;0.50;;
37221;SDS011;23119;51.842;-2.230;2022-08-03T03:22:13;2.60;;;0.50;;
37221;SDS011;23119;51.842;-2.230;2022-08-03T03:24:40;4.07;;;0.50;;
37221;SDS011;23119;51.842;-2.230;2022-08-03T03:27:12;3.53;;;0.50;;
37221;SDS011;23119;51.842;-2.230;2022-08-03T03:29:42;5.55;;;0.50;;
37221;SDS011;23119;51.842;-2.230;2022-08-03T03:32:10;4.40;;;0.40;;
37221;SDS011;23119;51.842;-2.230;2022-08-03T03:34:39;2.33;;;0.43;;
37221;SDS011;23119;51.842;-2.230;2022-08-03T03:37:08;1.80;;;0.60;;
37221;SDS011;23119;51.842;-2.230;2022-08-03T03:39:34;6.55;;;0.50;;
37221;SDS011;23119;51.842;-2.230;2022-08-03T03:42:00;3.08;;;0.45;;
37221;SDS011;23119;51.842;-2.230;2022-08-03T03:44:38;2.10;;;0.32;;
37221;SDS011;23119;51.842;-2.230;2022-08-03T03:47:04;2.25;;;0.80;;
37221;SDS011;23119;51.842;-2.230;2022-08-03T03:49:40;3.85;;;0.35;;
37221;SDS011;23119;51.842;-2.230;2022-08-03T03:52:11;4.68;;;0.55;;
37221;SDS011;23119;51.842;-2.230;2022-08-03T03:54:40;3.20;;;0.43;;
37221;SDS011;23119;51.842;-2.230;2022-08-03T03:57:09;2.65;;;0.30;;
37221;SDS011;23119;51.842;-2.230;2022-08-03T03:59:38;1.48;;;0.50;;
37221;SDS011;23119;51.842;-2.230;2022-08-03T04:02:10;3.05;;;0.40;;
37221;SDS011;23119;51.842;-2.230;2022-08-03T04:05:00;1.60;;;0.20;;
37221;SDS011;23119;51.842;-2.230;2022-08-03T04:07:49;1.67;;;0.30;;
37221;SDS011;23119;51.842;-2.230;2022-08-03T04:10:45;0.68;;;0.20;;
37221;SDS011;23119;51.842;-2.230;2022-08-03T04:13:32;1.30;;;0.28;;
37221;SDS011;23119;51.842;-2.230;2022-08-03T04:16:20;0.68;;;0.13;;
37221;SDS011;23119;51.842;-2.230;2022-08-03T04:18:53;1.08;;;0.13;;
37221;SDS011;23119;51.842;-2.230;2022-08-03T04:21:32;2.42;;;0.20;;
37221;SDS011;23119;51.842;-2.230;2022-08-03T04:24:00;0.43;;;0.17;;
37221;SDS011;23119;51.842;-2.230;2022-08-03T04:26:32;1.42;;;0.28;;
37221;SDS011;23119;51.842;-2.230;2022-08-03T04:29:04;1.30;;;0.30;;
37221;SDS011;23119;51.842;-2.230;2022-08-03T04:31:43;0.60;;;0.30;;
37221;SDS011;23119;51.842;-2.230;2022-08-03T04:34:13;4.90;;;0.30;;
37221;SDS011;23119;51.842;-2.230;2022-08-03T04:36:46;3.67;;;0.40;;
37221;SDS011;23119;51.842;-2.230;2022-08-03T04:39:17;5.15;;;0.77;;
37221;SDS011;23119;51.842;-2.230;2022-08-03T04:41:55;2.15;;;0.40;;
37221;SDS011;23119;51.842;-2.230;2022-08-03T04:44:33;0.85;;;0.45;;
37221;SDS011;23119;51.842;-2.230;2022-08-03T04:47:01;5.72;;;0.40;;
37221;SDS011;23119;51.842;-2.230;2022-08-03T04:49:30;3.30;;;0.68;;
37221;SDS011;23119;51.842;-2.230;2022-08-03T04:52:00;3.58;;;0.55;;
37221;SDS011;23119;51.842;-2.230;2022-08-03T04:57:21;1.58;;;0.60;;
37221;SDS011;23119;51.842;-2.230;2022-08-03T04:59:49;3.88;;;0.63;;
37221;SDS011;23119;51.842;-2.230;2022-08-03T05:02:21;3.17;;;0.52;;
37221;SDS011;23119;51.842;-2.230;2022-08-03T05:04:49;3.53;;;0.63;;
37221;SDS011;23119;51.842;-2.230;2022-08-03T05:07:21;3.38;;;0.85;;
37221;SDS011;23119;51.842;-2.230;2022-08-03T05:09:47;3.58;;;0.80;;
37221;SDS011;23119;51.842;-2.230;2022-08-03T05:12:17;5.80;;;1.07;;
37221;SDS011;23119;51.842;-2.230;2022-08-03T05:14:45;7.80;;;1.40;;
37221;SDS011;23119;51.842;-2.230;2022-08-03T05:17:20;2.67;;;0.90;;
37221;SDS011;23119;51.842;-2.230;2022-08-03T05:19:57;5.57;;;1.45;;
37221;SDS011;23119;51.842;-2.230;2022-08-03T05:22:30;2.60;;;1.13;;
37221;SDS011;23119;51.842;-2.230;2022-08-03T05:25:01;4.50;;;0.75;;
37221;SDS011;23119;51.842;-2.230;2022-08-03T05:27:27;1.88;;;0.70;;
37221;SDS011;23119;51.842;-2.230;2022-08-03T05:29:55;3.58;;;0.70;;
37221;SDS011;23119;51.842;-2.230;2022-08-03T05:32:27;2.63;;;0.68;;
37221;SDS011;23119;51.842;-2.230;2022-08-03T05:34:57;2.53;;;0.60;;
37221;SDS011;23119;51.842;-2.230;2022-08-03T05:37:25;1.50;;;0.40;;
37221;SDS011;23119;51.842;-2.230;2022-08-03T05:40:11;1.70;;;0.40;;
37221;SDS011;23119;51.842;-2.230;2022-08-03T05:42:40;3.47;;;0.43;;
37221;SDS011;23119;51.842;-2.230;2022-08-03T05:45:10;2.55;;;0.50;;
37221;SDS011;23119;51.842;-2.230;2022-08-03T05:47:43;1.33;;;0.32;;
37221;SDS011;23119;51.842;-2.230;2022-08-03T05:50:19;1.73;;;0.30;;
37221;SDS011;23119;51.842;-2.230;2022-08-03T05:52:54;0.70;;;0.30;;
37221;SDS011;23119;51.842;-2.230;2022-08-03T05:55:25;2.08;;;0.30;;
37221;SDS011;23119;51.842;-2.230;2022-08-03T05:57:54;2.28;;;0.30;;
37221;SDS011;23119;51.842;-2.230;2022-08-03T06:00:22;1.73;;;0.20;;
37221;SDS011;23119;51.842;-2.230;2022-08-03T06:02:57;1.15;;;0.25;;
37221;SDS011;23119;51.842;-2.230;2022-08-03T06:05:36;0.70;;;0.10;;
37221;SDS011;23119;51.842;-2.230;2022-08-03T06:08:05;1.17;;;0.30;;
37221;SDS011;23119;51.842;-2.230;2022-08-03T06:10:30;1.17;;;0.20;;
37221;SDS011;23119;51.842;-2.230;2022-08-03T06:13:03;1.73;;;0.30;;
37221;SDS011;23119;51.842;-2.230;2022-08-03T06:15:38;1.05;;;0.20;;
37221;SDS011;23119;51.842;-2.230;2022-08-03T06:20:35;0.68;;;0.20;;
37221;SDS011;23119;51.842;-2.230;2022-08-03T06:23:06;3.10;;;0.30;;
37221;SDS011;23119;51.842;-2.230;2022-08-03T06:25:39;2.97;;;0.47;;
37221;SDS011;23119;51.842;-2.230;2022-08-03T06:28:12;0.20;;;0.10;;
37221;SDS011;23119;51.842;-2.230;2022-08-03T06:30:49;1.90;;;0.20;;
37221;SDS011;23119;51.842;-2.230;2022-08-03T06:33:15;3.78;;;0.28;;
37221;SDS011;23119;51.842;-2.230;2022-08-03T06:35:43;0.90;;;0.20;;
37221;SDS011;23119;51.842;-2.230;2022-08-03T06:38:15;32.80;;;1.83;;
37221;SDS011;23119;51.842;-2.230;2022-08-03T06:40:43;7.07;;;0.30;;
37221;SDS011;23119;51.842;-2.230;2022-08-03T06:43:11;0.95;;;0.20;;
37221;SDS011;23119;51.842;-2.230;2022-08-03T06:45:40;1.85;;;0.20;;
37221;SDS011;23119;51.842;-2.230;2022-08-03T06:48:11;1.50;;;0.20;;
37221;SDS011;23119;51.842;-2.230;2022-08-03T06:50:41;2.70;;;0.20;;
37221;SDS011;23119;51.842;-2.230;2022-08-03T06:53:11;4.13;;;0.20;;
37221;SDS011;23119;51.842;-2.230;2022-08-03T06:55:42;2.40;;;0.32;;
37221;SDS011;23119;51.842;-2.230;2022-08-03T07:00:48;3.33;;;0.30;;
37221;SDS011;23119;51.842;-2.230;2022-08-03T07:03:14;3.42;;;0.20;;
37221;SDS011;23119;51.842;-2.230;2022-08-03T07:05:42;2.10;;;0.20;;
37221;SDS011;23119;51.842;-2.230;2022-08-03T07:08:19;2.47;;;0.20;;
37221;SDS011;23119;51.842;-2.230;2022-08-03T07:10:47;1.05;;;0.20;;
37221;SDS011;23119;51.842;-2.230;2022-08-03T07:13:13;2.45;;;0.20;;
37221;SDS011;23119;51.842;-2.230;2022-08-03T07:15:41;1.08;;;0.30;;
37221;SDS011;23119;51.842;-2.230;2022-08-03T07:18:17;1.00;;;0.15;;
37221;SDS011;23119;51.842;-2.230;2022-08-03T07:20:48;1.80;;;0.20;;
37221;SDS011;23119;51.842;-2.230;2022-08-03T07:23:16;0.95;;;0.17;;
37221;SDS011;23119;51.842;-2.230;2022-08-03T07:25:53;4.38;;;0.30;;
37221;SDS011;23119;51.842;-2.230;2022-08-03T07:28:24;1.17;;;0.20;;
37221;SDS011;23119;51.842;-2.230;2022-08-03T07:30:55;1.10;;;0.10;;
37221;SDS011;23119;51.842;-2.230;2022-08-03T07:33:21;3.35;;;0.30;;
37221;SDS011;23119;51.842;-2.230;2022-08-03T07:35:49;6.93;;;0.40;;
37221;SDS011;23119;51.842;-2.230;2022-08-03T07:38:15;2.83;;;0.20;;
37221;SDS011;23119;51.842;-2.230;2022-08-03T07:40:43;3.95;;;0.28;;
37221;SDS011;23119;51.842;-2.230;2022-08-03T07:43:20;1.48;;;0.20;;
37221;SDS011;23119;51.842;-2.230;2022-08-03T07:45:46;1.40;;;0.20;;
37221;SDS011;23119;51.842;-2.230;2022-08-03T07:48:16;1.75;;;0.20;;
37221;SDS011;23119;51.842;-2.230;2022-08-03T07:50:51;1.40;;;0.10;;
37221;SDS011;23119;51.842;-2.230;2022-08-03T07:53:25;1.63;;;0.10;;
37221;SDS011;23119;51.842;-2.230;2022-08-03T07:55:53;2.25;;;0.10;;
37221;SDS011;23119;51.842;-2.230;2022-08-03T07:58:26;0.70;;;0.10;;
37221;SDS011;23119;51.842;-2.230;2022-08-03T08:00:57;1.15;;;0.10;;
37221;SDS011;23119;51.842;-2.230;2022-08-03T08:03:30;0.15;;;0.00;;
37221;SDS011;23119;51.842;-2.230;2022-08-03T08:05:56;1.98;;;0.10;;
37221;SDS011;23119;51.842;-2.230;2022-08-03T08:08:24;1.98;;;0.10;;
37221;SDS011;23119;51.842;-2.230;2022-08-03T08:11:01;0.55;;;0.10;;
37221;SDS011;23119;51.842;-2.230;2022-08-03T08:13:37;8.20;;;0.57;;
37221;SDS011;23119;51.842;-2.230;2022-08-03T08:16:08;2.33;;;0.17;;
37221;SDS011;23119;51.842;-2.230;2022-08-03T08:18:38;1.02;;;0.20;;
37221;SDS011;23119;51.842;-2.230;2022-08-03T08:21:10;0.47;;;0.10;;
37221;SDS011;23119;51.842;-2.230;2022-08-03T08:23:36;1.92;;;0.30;;
37221;SDS011;23119;51.842;-2.230;2022-08-03T08:26:07;2.25;;;0.40;;
37221;SDS011;23119;51.842;-2.230;2022-08-03T08:28:38;2.55;;;0.65;;
37221;SDS011;23119;51.842;-2.230;2022-08-03T08:31:04;1.38;;;0.20;;
37221;SDS011;23119;51.842;-2.230;2022-08-03T08:33:35;2.38;;;0.60;;
37221;SDS011;23119;51.842;-2.230;2022-08-03T08:36:00;1.77;;;0.20;;
37221;SDS011;23119;51.842;-2.230;2022-08-03T08:38:33;0.38;;;0.20;;
37221;SDS011;23119;51.842;-2.230;2022-08-03T08:41:05;0.30;;;0.10;;
37221;SDS011;23119;51.842;-2.230;2022-08-03T08:43:36;1.65;;;0.35;;
37221;SDS011;23119;51.842;-2.230;2022-08-03T08:46:08;0.47;;;0.15;;
37221;SDS011;23119;51.842;-2.230;2022-08-03T08:48:46;1.30;;;0.20;;
37221;SDS011;23119;51.842;-2.230;2022-08-03T08:51:13;2.92;;;0.10;;
37221;SDS011;23119;51.842;-2.230;2022-08-03T08:53:43;0.45;;;0.10;;
37221;SDS011;23119;51.842;-2.230;2022-08-03T08:56:37;0.73;;;0.05;;
37221;SDS011;23119;51.842;-2.230;2022-08-03T08:59:06;0.52;;;0.00;;
37221;SDS011;23119;51.842;-2.230;2022-08-03T09:01:35;0.08;;;0.00;;
37221;SDS011;23119;51.842;-2.230;2022-08-03T09:04:01;1.27;;;0.05;;
37221;SDS011;23119;51.842;-2.230;2022-08-03T09:06:41;0.20;;;0.00;;
37221;SDS011;23119;51.842;-2.230;2022-08-03T09:09:09;0.38;;;0.00;;
37221;SDS011;23119;51.842;-2.230;2022-08-03T09:11:41;0.00;;;0.00;;
37221;SDS011;23119;51.842;-2.230;2022-08-03T09:14:12;0.10;;;0.00;;
37221;SDS011;23119;51.842;-2.230;2022-08-03T09:16:38;0.08;;;0.00;;
37221;SDS011;23119;51.842;-2.230;2022-08-03T09:19:32;0.30;;;0.00;;
37221;SDS011;23119;51.842;-2.230;2022-08-03T09:24:53;0.10;;;0.00;;
37221;SDS011;23119;51.842;-2.230;2022-08-03T09:27:26;0.35;;;0.00;;
37221;SDS011;23119;51.842;-2.230;2022-08-03T09:29:52;1.00;;;0.00;;
37221;SDS011;23119;51.842;-2.230;2022-08-03T09:32:26;0.25;;;0.00;;
37221;SDS011;23119;51.842;-2.230;2022-08-03T09:34:52;0.08;;;0.00;;
37221;SDS011;23119;51.842;-2.230;2022-08-03T09:37:35;0.30;;;0.10;;
37221;SDS011;23119;51.842;-2.230;2022-08-03T09:40:04;0.35;;;0.00;;
37221;SDS011;23119;51.842;-2.230;2022-08-03T09:42:31;0.40;;;0.00;;
37221;SDS011;23119;51.842;-2.230;2022-08-03T09:45:05;0.20;;;0.10;;
37221;SDS011;23119;51.842;-2.230;2022-08-03T09:47:49;0.20;;;0.03;;
37221;SDS011;23119;51.842;-2.230;2022-08-03T09:50:20;0.93;;;0.10;;
37221;SDS011;23119;51.842;-2.230;2022-08-03T09:52:47;0.08;;;0.00;;
37221;SDS011;23119;51.842;-2.230;2022-08-03T09:55:18;0.03;;;0.00;;
37221;SDS011;23119;51.842;-2.230;2022-08-03T09:57:48;0.20;;;0.10;;
37221;SDS011;23119;51.842;-2.230;2022-08-03T10:00:30;0.80;;;0.05;;
37221;SDS011;23119;51.842;-2.230;2022-08-03T10:03:02;2.00;;;0.10;;
37221;SDS011;23119;51.842;-2.230;2022-08-03T10:05:32;0.10;;;0.00;;
37221;SDS011;23119;51.842;-2.230;2022-08-03T10:08:09;1.65;;;0.10;;
37221;SDS011;23119;51.842;-2.230;2022-08-03T10:10:46;0.20;;;0.00;;
37221;SDS011;23119;51.842;-2.230;2022-08-03T10:13:16;0.40;;;0.10;;
37221;SDS011;23119;51.842;-2.230;2022-08-03T10:15:43;0.45;;;0.08;;
37221;SDS011;23119;51.842;-2.230;2022-08-03T10:18:14;0.30;;;0.10;;
37221;SDS011;23119;51.842;-2.230;2022-08-03T10:20:44;0.90;;;0.10;;
37221;SDS011;23119;51.842;-2.230;2022-08-03T10:23:14;0.65;;;0.10;;
37221;SDS011;23119;51.842;-2.230;2022-08-03T10:25:52;0.30;;;0.10;;
37221;SDS011;23119;51.842;-2.230;2022-08-03T10:28:23;0.40;;;0.10;;
37221;SDS011;23119;51.842;-2.230;2022-08-03T10:30:50;0.40;;;0.10;;
37221;SDS011;23119;51.842;-2.230;2022-08-03T10:35:52;0.65;;;0.15;;
37221;SDS011;23119;51.842;-2.230;2022-08-03T10:38:31;0.35;;;0.10;;
37221;SDS011;23119;51.842;-2.230;2022-08-03T10:41:01;0.20;;;0.10;;
37221;SDS011;23119;51.842;-2.230;2022-08-03T10:43:35;1.00;;;0.20;;
37221;SDS011;23119;51.842;-2.230;2022-08-03T10:46:13;0.35;;;0.20;;
37221;SDS011;23119;51.842;-2.230;2022-08-03T10:48:43;0.87;;;0.20;;
37221;SDS011;23119;51.842;-2.230;2022-08-03T10:51:10;2.88;;;0.20;;
37221;SDS011;23119;51.842;-2.230;2022-08-03T10:53:40;0.98;;;0.30;;
37221;SDS011;23119;51.842;-2.230;2022-08-03T10:59:19;2.33;;;0.40;;
37221;SDS011;23119;51.842;-2.230;2022-08-03T11:02:12;3.58;;;0.50;;
37221;SDS011;23119;51.842;-2.230;2022-08-03T11:04:42;1.42;;;0.50;;
37221;SDS011;23119;51.842;-2.230;2022-08-03T11:07:18;4.60;;;0.55;;
37221;SDS011;23119;51.842;-2.230;2022-08-03T11:09:51;1.85;;;0.50;;
37221;SDS011;23119;51.842;-2.230;2022-08-03T11:12:32;3.10;;;0.73;;
37221;SDS011;23119;51.842;-2.230;2022-08-03T11:15:02;1.60;;;0.60;;
37221;SDS011;23119;51.842;-2.230;2022-08-03T11:17:32;1.45;;;0.70;;
37221;SDS011;23119;51.842;-2.230;2022-08-03T11:20:05;1.17;;;0.60;;
37221;SDS011;23119;51.842;-2.230;2022-08-03T11:22:49;0.98;;;0.55;;
37221;SDS011;23119;51.842;-2.230;2022-08-03T11:25:18;2.75;;;0.63;;
37221;SDS011;23119;51.842;-2.230;2022-08-03T11:27:43;2.33;;;0.70;;
37221;SDS011;23119;51.842;-2.230;2022-08-03T11:35:10;1.33;;;0.50;;
37221;SDS011;23119;51.842;-2.230;2022-08-03T11:43:00;1.98;;;0.50;;
37221;SDS011;23119;51.842;-2.230;2022-08-03T11:45:35;1.45;;;0.55;;
37221;SDS011;23119;51.842;-2.230;2022-08-03T11:48:11;3.08;;;0.50;;
37221;SDS011;23119;51.842;-2.230;2022-08-03T11:50:39;1.67;;;0.47;;
37221;SDS011;23119;51.842;-2.230;2022-08-03T11:53:12;1.83;;;0.40;;
37221;SDS011;23119;51.842;-2.230;2022-08-03T11:55:40;3.42;;;0.60;;
37221;SDS011;23119;51.842;-2.230;2022-08-03T11:58:14;1.00;;;0.40;;
37221;SDS011;23119;51.842;-2.230;2022-08-03T12:00:40;1.67;;;0.50;;
37221;SDS011;23119;51.842;-2.230;2022-08-03T12:03:10;1.13;;;0.40;;
37221;SDS011;23119;51.842;-2.230;2022-08-03T12:10:51;2.38;;;0.60;;
37221;SDS011;23119;51.842;-2.230;2022-08-03T12:13:25;4.85;;;0.60;;
37221;SDS011;23119;51.842;-2.230;2022-08-03T12:16:00;2.28;;;0.55;;
37221;SDS011;23119;51.842;-2.230;2022-08-03T12:18:26;4.63;;;0.85;;
37221;SDS011;23119;51.842;-2.230;2022-08-03T12:20:54;1.83;;;0.80;;
37221;SDS011;23119;51.842;-2.230;2022-08-03T12:23:31;3.50;;;0.68;;
37221;SDS011;23119;51.842;-2.230;2022-08-03T12:26:00;1.73;;;0.88;;
37221;SDS011;23119;51.842;-2.230;2022-08-03T12:28:30;1.58;;;0.47;;
37221;SDS011;23119;51.842;-2.230;2022-08-03T12:31:03;2.42;;;0.57;;
37221;SDS011;23119;51.842;-2.230;2022-08-03T12:33:54;5.95;;;0.65;;
37221;SDS011;23119;51.842;-2.230;2022-08-03T12:36:49;2.80;;;0.50;;
37221;SDS011;23119;51.842;-2.230;2022-08-03T12:39:16;4.05;;;0.75;;
37221;SDS011;23119;51.842;-2.230;2022-08-03T12:41:51;3.50;;;0.50;;
37221;SDS011;23119;51.842;-2.230;2022-08-03T12:44:27;1.40;;;0.60;;
37221;SDS011;23119;51.842;-2.230;2022-08-03T12:46:57;2.03;;;0.60;;
37221;SDS011;23119;51.842;-2.230;2022-08-03T12:49:24;1.00;;;0.40;;
37221;SDS011;23119;51.842;-2.230;2022-08-03T12:54:17;5.63;;;0.50;;
37221;SDS011;23119;51.842;-2.230;2022-08-03T12:59:42;2.13;;;0.43;;
37221;SDS011;23119;51.842;-2.230;2022-08-03T13:02:19;2.95;;;0.50;;
37221;SDS011;23119;51.842;-2.230;2022-08-03T13:04:47;2.13;;;0.50;;
37221;SDS011;23119;51.842;-2.230;2022-08-03T13:07:15;1.13;;;0.40;;
37221;SDS011;23119;51.842;-2.230;2022-08-03T13:09:47;2.00;;;0.50;;
37221;SDS011;23119;51.842;-2.230;2022-08-03T13:12:19;2.72;;;0.40;;
37221;SDS011;23119;51.842;-2.230;2022-08-03T13:15:08;1.52;;;0.57;;
37221;SDS011;23119;51.842;-2.230;2022-08-03T13:17:34;1.77;;;0.35;;
37221;SDS011;23119;51.842;-2.230;2022-08-03T13:20:00;3.88;;;0.50;;
37221;SDS011;23119;51.842;-2.230;2022-08-03T13:22:26;2.33;;;0.60;;
37221;SDS011;23119;51.842;-2.230;2022-08-03T13:24:56;1.73;;;0.50;;
37221;SDS011;23119;51.842;-2.230;2022-08-03T13:27:22;3.65;;;0.47;;
37221;SDS011;23119;51.842;-2.230;2022-08-03T13:29:54;3.20;;;0.50;;
37221;SDS011;23119;51.842;-2.230;2022-08-03T13:32:25;3.63;;;0.40;;
37221;SDS011;23119;51.842;-2.230;2022-08-03T13:34:58;3.35;;;0.50;;
37221;SDS011;23119;51.842;-2.230;2022-08-03T13:37:26;4.95;;;0.40;;
37221;SDS011;23119;51.842;-2.230;2022-08-03T13:39:53;2.38;;;0.40;;
37221;SDS011;23119;51.842;-2.230;2022-08-03T13:42:18;2.70;;;0.50;;
37221;SDS011;23119;51.842;-2.230;2022-08-03T13:44:48;2.05;;;0.40;;
37221;SDS011;23119;51.842;-2.230;2022-08-03T13:47:14;2.22;;;0.73;;
37221;SDS011;23119;51.842;-2.230;2022-08-03T13:49:43;3.20;;;0.40;;
37221;SDS011;23119;51.842;-2.230;2022-08-03T13:52:08;1.48;;;0.40;;
37221;SDS011;23119;51.842;-2.230;2022-08-03T13:54:36;2.75;;;0.43;;
37221;SDS011;23119;51.842;-2.230;2022-08-03T13:57:02;2.95;;;0.50;;
37221;SDS011;23119;51.842;-2.230;2022-08-03T13:59:28;2.92;;;0.40;;
37221;SDS011;23119;51.842;-2.230;2022-08-03T14:01:57;2.67;;;0.40;;
37221;SDS011;23119;51.842;-2.230;2022-08-03T14:04:23;1.38;;;0.40;;
37221;SDS011;23119;51.842;-2.230;2022-08-03T14:06:49;2.47;;;0.40;;
37221;SDS011;23119;51.842;-2.230;2022-08-03T14:09:15;1.95;;;0.40;;
37221;SDS011;23119;51.842;-2.230;2022-08-03T14:11:42;3.85;;;0.30;;
37221;SDS011;23119;51.842;-2.230;2022-08-03T14:14:09;3.67;;;0.40;;
37221;SDS011;23119;51.842;-2.230;2022-08-03T14:16:35;1.98;;;0.40;;
37221;SDS011;23119;51.842;-2.230;2022-08-03T14:19:08;1.73;;;0.30;;
37221;SDS011;23119;51.842;-2.230;2022-08-03T14:21:36;1.73;;;0.28;;
37221;SDS011;23119;51.842;-2.230;2022-08-03T14:24:02;1.98;;;0.30;;
37221;SDS011;23119;51.842;-2.230;2022-08-03T14:26:28;1.67;;;0.50;;
37221;SDS011;23119;51.842;-2.230;2022-08-03T14:29:02;2.83;;;0.40;;
37221;SDS011;23119;51.842;-2.230;2022-08-03T14:31:29;2.80;;;0.32;;
37221;SDS011;23119;51.842;-2.230;2022-08-03T14:33:57;3.22;;;0.40;;
37221;SDS011;23119;51.842;-2.230;2022-08-03T14:36:32;1.20;;;0.30;;
37221;SDS011;23119;51.842;-2.230;2022-08-03T14:38:58;1.20;;;0.30;;
37221;SDS011;23119;51.842;-2.230;2022-08-03T14:41:24;2.63;;;0.35;;
37221;SDS011;23119;51.842;-2.230;2022-08-03T14:43:50;1.20;;;0.22;;
37221;SDS011;23119;51.842;-2.230;2022-08-03T14:46:16;2.92;;;0.30;;
37221;SDS011;23119;51.842;-2.230;2022-08-03T14:48:41;1.55;;;0.30;;
37221;SDS011;23119;51.842;-2.230;2022-08-03T14:51:07;4.18;;;0.32;;
37221;SDS011;23119;51.842;-2.230;2022-08-03T14:53:33;2.35;;;0.20;;
37221;SDS011;23119;51.842;-2.230;2022-08-03T14:56:01;3.00;;;0.43;;
37221;SDS011;23119;51.842;-2.230;2022-08-03T14:58:27;1.13;;;0.30;;
37221;SDS011;23119;51.842;-2.230;2022-08-03T15:01:13;2.75;;;0.47;;
37221;SDS011;23119;51.842;-2.230;2022-08-03T15:03:46;3.40;;;0.30;;
37221;SDS011;23119;51.842;-2.230;2022-08-03T15:06:21;0.90;;;0.20;;
37221;SDS011;23119;51.842;-2.230;2022-08-03T15:09:11;1.80;;;0.30;;
37221;SDS011;23119;51.842;-2.230;2022-08-03T15:11:36;1.05;;;0.20;;
37221;SDS011;23119;51.842;-2.230;2022-08-03T15:14:04;1.33;;;0.40;;
37221;SDS011;23119;51.842;-2.230;2022-08-03T15:16:30;3.70;;;0.40;;
37221;SDS011;23119;51.842;-2.230;2022-08-03T15:19:05;2.03;;;0.30;;
37221;SDS011;23119;51.842;-2.230;2022-08-03T15:21:31;2.47;;;0.28;;
37221;SDS011;23119;51.842;-2.230;2022-08-03T15:23:56;1.25;;;0.30;;
37221;SDS011;23119;51.842;-2.230;2022-08-03T15:26:25;1.92;;;0.32;;
37221;SDS011;23119;51.842;-2.230;2022-08-03T15:28:53;2.22;;;0.40;;
37221;SDS011;23119;51.842;-2.230;2022-08-03T15:31:22;2.15;;;0.70;;
37221;SDS011;23119;51.842;-2.230;2022-08-03T15:33:50;1.10;;;0.30;;
37221;SDS011;23119;51.842;-2.230;2022-08-03T15:36:23;4.05;;;0.30;;
37221;SDS011;23119;51.842;-2.230;2022-08-03T15:38:51;0.88;;;0.30;;
37221;SDS011;23119;51.842;-2.230;2022-08-03T15:41:17;2.25;;;0.50;;
37221;SDS011;23119;51.842;-2.230;2022-08-03T15:43:43;2.30;;;0.50;;
37221;SDS011;23119;51.842;-2.230;2022-08-03T15:46:20;2.00;;;0.40;;
37221;SDS011;23119;51.842;-2.230;2022-08-03T15:48:46;2.47;;;0.32;;
37221;SDS011;23119;51.842;-2.230;2022-08-03T15:51:19;2.92;;;0.45;;